Time;durP1;ratioP1;P1;durP2;ratioP2;P2;SDS_P1;SDS_P2;PMS_P1;PMS_P2;Temp;Humidity;BMP_temperature;BMP_pressure;BME280_temperature;BME280_humidity;BME280_pressure;Samples;Min_cycle;Max_cycle;Signal;HPM_P1;HPM_P2
2021/12/16 00:08:49;;;;;;;60.93;32.20;;;10.10;99.90;;;;;;5006462;28;20091;-91
2021/12/16 00:19:20;;;;;;;57.83;30.77;;;10.10;99.90;;;;;;5030805;28;20087;-90
2021/12/16 00:20:14;;;;;;;62.87;32.30;;;10.10;99.90;;;;;;5030787;28;20061;-91
2021/12/16 00:33:30;;;;;;;65.83;33.17;;;10.10;99.90;;;;;;5014082;28;20037;-91
2021/12/16 00:35:56;;;;;;;65.03;32.97;;;10.10;99.90;;;;;;5031016;28;20030;-90
2021/12/16 00:38:22;;;;;;;66.10;33.20;;;10.10;99.90;;;;;;5014048;28;20026;-91
2021/12/16 00:40:48;;;;;;;68.13;34.33;;;10.20;99.90;;;;;;5014209;28;20036;-90
2021/12/16 00:43:41;;;;;;;61.50;32.03;;;10.10;99.90;;;;;;5014296;28;20030;-90
2021/12/16 00:54:11;;;;;;;70.80;34.13;;;10.10;99.90;;;;;;5030675;28;20480;-90
2021/12/16 00:56:43;;;;;;;70.50;34.57;;;10.10;99.90;;;;;;4998067;28;20056;-90
2021/12/16 00:59:12;;;;;;;67.73;34.13;;;10.00;99.90;;;;;;5030451;28;20052;-91
2021/12/16 01:40:07;;;;;;;67.90;34.77;;;10.10;99.90;;;;;;5017249;28;20035;-91
2021/12/16 01:45:28;;;;;;;66.20;34.07;;;10.10;99.90;;;;;;5017244;28;20025;-91
2021/12/16 01:50:52;;;;;;;66.97;34.03;;;10.10;99.90;;;;;;5033735;28;20048;-90
2021/12/16 01:56:24;;;;;;;65.63;34.70;;;10.10;99.90;;;;;;5033734;28;20518;-91
2021/12/16 01:58:51;;;;;;;67.97;33.80;;;10.10;99.90;;;;;;5017054;28;20025;-91
2021/12/16 02:01:21;;;;;;;69.13;35.60;;;10.10;99.90;;;;;;5017213;28;20045;-91
2021/12/16 02:03:53;;;;;;;;;;;10.10;99.90;;;;;;5001119;28;20029;-91
2021/12/16 02:06:45;;;;;;;67.97;34.33;;;10.10;99.90;;;;;;5033469;28;19913;-90
2021/12/16 02:09:19;;;;;;;64.40;33.83;;;10.10;99.90;;;;;;5016684;28;20025;-90
2021/12/16 02:12:43;;;;;;;68.27;35.33;;;10.10;99.90;;;;;;5017052;28;20511;-91
2021/12/16 02:31:21;;;;;;;69.10;34.85;;;10.10;99.90;;;;;;5016483;28;20025;-90
2021/12/16 02:36:56;;;;;;;70.85;34.85;;;10.10;99.90;;;;;;4973197;28;20107;-90
2021/12/16 02:39:30;;;;;;;70.13;34.47;;;10.10;99.90;;;;;;4972832;28;20549;-90
2021/12/16 02:42:04;;;;;;;66.70;33.03;;;10.10;99.90;;;;;;4998171;28;20041;-91
2021/12/16 02:44:41;;;;;;;64.43;33.10;;;10.10;99.90;;;;;;5016204;28;20053;-90
2021/12/16 02:49:56;;;;;;;68.93;34.60;;;10.10;99.90;;;;;;5033783;28;20487;-91
2021/12/16 02:52:24;;;;;;;69.30;33.70;;;10.10;99.90;;;;;;4999735;28;20035;-90
2021/12/16 02:54:50;;;;;;;63.00;34.13;;;10.10;99.90;;;;;;4999840;28;20063;-91
2021/12/16 02:57:17;;;;;;;65.87;34.57;;;10.10;99.90;;;;;;5017001;28;20028;-90
2021/12/16 02:59:44;;;;;;;72.37;35.63;;;10.10;99.90;;;;;;5019336;28;20029;-90
2021/12/16 03:02:14;;;;;;;70.40;35.63;;;10.10;99.90;;;;;;5012179;28;20080;-91
2021/12/16 03:04:46;;;;;;;67.80;33.30;;;10.10;99.90;;;;;;5015214;28;20029;-90
2021/12/16 03:07:14;;;;;;;68.85;34.63;;;10.00;99.90;;;;;;5031305;28;20097;-90
2021/12/16 03:15:18;;;;;;;67.23;33.73;;;10.10;99.90;;;;;;5016009;28;20033;-90
2021/12/16 03:18:13;;;;;;;72.10;35.15;;;10.10;99.90;;;;;;5015535;28;20032;-91
2021/12/16 03:39:56;;;;;;;67.43;34.73;;;10.10;99.90;;;;;;5038706;28;20125;-90
2021/12/16 03:42:28;;;;;;;68.47;34.80;;;10.10;99.90;;;;;;5017710;28;20036;-90
2021/12/16 03:45:00;;;;;;;67.27;34.60;;;10.10;99.90;;;;;;5032849;28;20399;-91
2021/12/16 03:47:43;;;;;;;67.17;34.53;;;10.10;99.90;;;;;;5032249;28;20041;-90
2021/12/16 03:50:11;;;;;;;;;;;10.00;99.90;;;;;;5015939;28;20496;-90
2021/12/16 03:52:38;;;;;;;65.03;33.33;;;10.00;99.90;;;;;;5017411;28;20012;-90
2021/12/16 03:55:07;;;;;;;72.13;35.60;;;10.10;99.90;;;;;;4999099;28;20075;-91
2021/12/16 03:57:36;;;;;;;71.37;37.03;;;10.10;99.90;;;;;;4998410;28;20083;-90
2021/12/16 04:00:07;;;;;;;66.47;35.13;;;10.10;99.90;;;;;;4998765;28;20029;-90
2021/12/16 04:03:03;;;;;;;63.33;34.17;;;10.10;99.90;;;;;;5032523;28;20381;-90
2021/12/16 04:05:34;;;;;;;71.17;36.20;;;10.10;99.90;;;;;;5014789;28;20045;-90
2021/12/16 04:08:05;;;;;;;66.47;34.40;;;10.10;99.90;;;;;;5014907;28;20040;-90
2021/12/16 04:11:02;;;;;;;66.90;34.37;;;10.10;99.90;;;;;;5000332;28;20040;-90
2021/12/16 04:13:46;;;;;;;69.60;35.97;;;10.10;99.90;;;;;;5014763;28;20057;-90
2021/12/16 04:16:12;;;;;;;65.57;33.40;;;10.10;99.90;;;;;;4998721;28;20025;-90
2021/12/16 04:18:39;;;;;;;69.30;33.53;;;10.10;99.90;;;;;;5014492;28;20449;-90
2021/12/16 04:21:05;;;;;;;73.13;36.13;;;10.10;99.90;;;;;;5014651;28;20061;-89
2021/12/16 04:23:31;;;;;;;70.40;35.83;;;10.00;99.90;;;;;;5014745;28;20030;-90
2021/12/16 04:25:58;;;;;;;67.67;34.93;;;10.10;99.90;;;;;;5014514;28;20395;-91
2021/12/16 04:28:30;;;;;;;74.50;39.37;;;10.00;99.90;;;;;;5030682;28;20028;-91
2021/12/16 04:30:58;;;;;;;69.43;35.17;;;10.00;99.90;;;;;;4998388;28;20395;-90
2021/12/16 04:33:28;;;;;;;69.90;35.33;;;10.00;99.90;;;;;;5014465;28;20036;-91
2021/12/16 04:35:54;;;;;;;71.72;35.35;;;10.00;99.90;;;;;;5014782;28;20555;-91
2021/12/16 04:38:21;;;;;;;71.10;34.87;;;9.90;99.90;;;;;;5016354;28;20034;-91
2021/12/16 04:40:49;;;;;;;67.20;35.03;;;10.00;99.90;;;;;;5018470;28;20026;-91
2021/12/16 04:43:21;;;;;;;70.57;36.75;;;10.00;99.90;;;;;;5002312;28;20036;-90
2021/12/16 04:46:03;;;;;;;69.50;36.47;;;9.90;99.90;;;;;;5035046;28;20040;-90
2021/12/16 04:48:30;;;;;;;70.87;35.80;;;10.00;99.90;;;;;;5018321;28;20033;-90
2021/12/16 04:50:56;;;;;;;72.40;34.63;;;9.90;99.90;;;;;;5018495;28;20075;-91
2021/12/16 04:53:22;;;;;;;68.43;34.73;;;9.90;99.90;;;;;;5018218;28;20034;-91
2021/12/16 04:55:52;;;;;;;69.90;35.27;;;9.90;99.90;;;;;;5018317;28;20040;-90
2021/12/16 04:58:18;;;;;;;68.10;35.00;;;9.90;99.90;;;;;;5018134;28;20025;-91
2021/12/16 05:00:44;;;;;;;72.47;35.97;;;10.00;99.90;;;;;;5018110;28;20028;-90
2021/12/16 05:03:33;;;;;;;;;;;9.90;99.90;;;;;;5032625;28;20057;-90
2021/12/16 05:06:02;;;;;;;63.23;33.50;;;9.90;99.90;;;;;;5034331;28;19915;-90
2021/12/16 05:08:28;;;;;;;66.87;34.17;;;9.90;99.90;;;;;;5001382;28;20373;-90
2021/12/16 05:11:12;;;;;;;68.87;35.40;;;9.90;99.90;;;;;;5017861;28;20404;-90
2021/12/16 05:13:42;;;;;;;65.77;34.57;;;9.80;99.90;;;;;;5002323;28;20030;-90
2021/12/16 05:16:10;;;;;;;64.40;33.40;;;9.90;99.90;;;;;;5001909;28;20028;-90
2021/12/16 05:18:44;;;;;;;66.70;33.50;;;9.90;99.90;;;;;;5001900;28;20120;-90
2021/12/16 05:24:25;;;;;;;63.77;33.80;;;9.80;99.90;;;;;;5034043;28;20036;-90
2021/12/16 05:27:01;;;;;;;65.07;33.87;;;9.80;99.90;;;;;;5001708;28;20030;-90
2021/12/16 05:29:27;;;;;;;65.20;34.47;;;9.80;99.90;;;;;;5017565;28;20029;-90
2021/12/16 05:31:56;;;;;;;61.10;31.55;;;9.80;99.90;;;;;;5001711;28;20030;-90
2021/12/16 05:34:23;;;;;;;65.77;34.60;;;9.70;99.90;;;;;;5017642;28;20049;-91
2021/12/16 05:36:50;;;;;;;65.23;34.00;;;9.80;99.90;;;;;;5043458;23;20049;-87
2021/12/16 05:39:16;;;;;;;68.97;33.80;;;9.70;99.90;;;;;;5033818;28;20025;-87
2021/12/16 05:41:57;;;;;;;67.90;35.13;;;9.80;99.90;;;;;;5017807;28;20037;-87
2021/12/16 05:44:23;;;;;;;71.10;36.67;;;9.70;99.90;;;;;;5033897;28;20488;-87
2021/12/16 05:46:50;;;;;;;64.90;35.40;;;9.70;99.90;;;;;;5020682;28;20060;-87
2021/12/16 05:49:16;;;;;;;69.40;35.07;;;9.80;99.90;;;;;;5012983;28;20033;-87
2021/12/16 05:51:49;;;;;;;62.85;34.08;;;9.70;99.90;;;;;;4997825;28;20037;-87
2021/12/16 05:54:16;;;;;;;73.50;35.77;;;9.70;99.90;;;;;;5013961;28;20034;-86
2021/12/16 05:56:51;;;;;;;69.37;34.60;;;9.70;99.90;;;;;;5013026;28;20026;-87
2021/12/16 05:59:19;;;;;;;67.43;35.00;;;9.70;99.90;;;;;;5013611;28;20428;-87
2021/12/16 06:01:50;;;;;;;63.67;33.87;;;9.70;99.90;;;;;;5013224;28;20084;-88
2021/12/16 06:04:20;;;;;;;65.67;34.03;;;9.70;99.90;;;;;;5013173;28;20261;-87
2021/12/16 06:06:50;;;;;;;61.97;32.93;;;9.70;99.90;;;;;;5013259;28;20121;-87
2021/12/16 06:09:16;;;;;;;66.70;34.80;;;9.70;99.90;;;;;;5013872;28;20115;-87
2021/12/16 06:11:44;;;;;;;68.17;34.13;;;9.60;99.90;;;;;;5013451;28;20519;-86
2021/12/16 06:14:40;;;;;;;69.17;35.73;;;9.60;99.90;;;;;;5013641;28;20248;-87
2021/12/16 06:27:56;;;;;;;66.20;34.65;;;9.70;99.90;;;;;;5012936;28;20125;-86
2021/12/16 06:30:29;;;;;;;68.20;35.70;;;9.70;99.90;;;;;;5013099;28;20069;-86
2021/12/16 06:32:55;;;;;;;66.30;35.37;;;9.70;99.90;;;;;;5012906;28;20034;-86
2021/12/16 06:35:22;;;;;;;76.93;37.37;;;9.70;99.90;;;;;;5012947;28;20096;-86
2021/12/16 06:37:49;;;;;;;68.37;36.20;;;9.70;99.90;;;;;;5012652;28;20034;-86
2021/12/16 06:40:25;;;;;;;70.10;35.77;;;9.70;99.90;;;;;;5011582;28;20033;-86
2021/12/16 06:43:22;;;;;;;73.77;37.13;;;9.70;99.90;;;;;;5012792;28;20034;-87
2021/12/16 06:45:51;;;;;;;69.17;36.73;;;9.70;99.90;;;;;;5012573;28;20033;-86
2021/12/16 06:48:23;;;;;;;72.83;36.13;;;9.70;99.90;;;;;;5012285;28;20496;-87
2021/12/16 06:50:59;;;;;;;70.77;36.57;;;9.70;99.90;;;;;;5012837;28;20041;-85
2021/12/16 06:53:32;;;;;;;73.97;37.83;;;9.70;99.90;;;;;;5012689;28;20030;-87
2021/12/16 06:58:47;;;;;;;68.80;36.53;;;9.70;99.90;;;;;;5011955;28;20052;-87
2021/12/16 07:01:31;;;;;;;73.57;38.05;;;9.70;99.90;;;;;;4995035;28;20057;-86
2021/12/16 07:03:58;;;;;;;76.43;37.30;;;9.70;99.90;;;;;;5012517;28;20036;-87
2021/12/16 07:06:27;;;;;;;70.07;35.87;;;9.70;99.90;;;;;;5012345;28;20033;-86
2021/12/16 07:09:00;;;;;;;71.93;36.73;;;9.70;99.90;;;;;;5011843;28;20120;-86
2021/12/16 07:11:26;;;;;;;69.77;35.90;;;9.80;99.90;;;;;;5012027;28;20029;-87
2021/12/16 07:13:58;;;;;;;71.60;36.00;;;9.80;99.90;;;;;;5012018;28;20030;-87
2021/12/16 07:16:26;;;;;;;72.90;36.63;;;9.70;99.90;;;;;;5012156;28;20021;-86
2021/12/16 07:18:54;;;;;;;78.30;40.38;;;9.70;99.90;;;;;;5011651;28;20032;-86
2021/12/16 07:21:20;;;;;;;79.03;38.70;;;9.80;99.90;;;;;;5011809;28;20026;-86
2021/12/16 07:23:45;;;;;;;79.90;38.63;;;9.80;99.90;;;;;;5011898;28;20100;-86
2021/12/16 07:26:12;;;;;;;77.33;37.30;;;9.80;99.90;;;;;;5012197;28;20128;-87
2021/12/16 07:28:37;;;;;;;78.03;37.73;;;9.80;99.90;;;;;;5011571;28;20113;-87
2021/12/16 07:31:03;;;;;;;86.03;38.97;;;9.80;99.90;;;;;;5011686;28;20470;-87
2021/12/16 07:33:29;;;;;;;76.60;37.40;;;9.70;99.90;;;;;;5011907;28;20038;-87
2021/12/16 07:35:55;;;;;;;84.20;38.23;;;9.80;99.90;;;;;;5011650;28;20089;-87
2021/12/16 07:38:22;;;;;;;80.07;37.10;;;9.80;99.90;;;;;;5011728;28;20387;-87
2021/12/16 07:40:50;;;;;;;85.97;38.47;;;9.80;99.90;;;;;;5011747;28;20018;-86
2021/12/16 07:43:26;;;;;;;76.27;35.87;;;9.80;99.90;;;;;;5011729;28;20033;-86
2021/12/16 07:45:54;;;;;;;73.00;35.27;;;9.70;99.90;;;;;;5011808;28;20030;-87
2021/12/16 07:48:22;;;;;;;82.10;36.55;;;9.70;99.90;;;;;;5011296;28;20495;-86
2021/12/16 07:50:53;;;;;;;87.00;36.83;;;9.70;99.90;;;;;;5011145;28;20082;-87
2021/12/16 07:53:19;;;;;;;83.77;36.07;;;9.70;99.90;;;;;;5011655;28;20033;-86
2021/12/16 07:55:47;;;;;;;76.60;35.17;;;9.60;99.90;;;;;;5013004;28;20487;-87
2021/12/16 07:58:13;;;;;;;80.17;37.40;;;9.60;99.90;;;;;;5011014;28;20303;-87
2021/12/16 08:00:40;;;;;;;83.57;39.50;;;9.60;99.90;;;;;;5011459;28;20026;-87
2021/12/16 08:03:08;;;;;;;85.30;37.10;;;9.60;99.90;;;;;;5011486;28;20511;-87
2021/12/16 08:05:37;;;;;;;91.33;39.57;;;9.60;99.90;;;;;;5012633;28;20102;-87
2021/12/16 08:08:04;;;;;;;88.40;37.80;;;9.60;99.90;;;;;;5015992;28;20124;-87
2021/12/16 08:10:31;;;;;;;103.93;40.93;;;9.60;99.90;;;;;;5015369;28;20030;-87
2021/12/16 08:12:57;;;;;;;153.10;45.07;;;9.60;99.90;;;;;;5011730;28;20030;-87
2021/12/16 08:15:23;;;;;;;166.43;46.83;;;9.60;99.90;;;;;;4995002;28;20085;-87
2021/12/16 08:17:54;;;;;;;84.83;36.27;;;9.60;99.90;;;;;;5011298;28;20131;-87
2021/12/16 08:20:21;;;;;;;90.57;38.10;;;9.60;99.90;;;;;;5011057;28;20022;-86
2021/12/16 08:22:48;;;;;;;88.83;37.93;;;9.60;99.90;;;;;;4994879;28;20061;-86
2021/12/16 08:25:16;;;;;;;86.80;37.37;;;9.60;99.90;;;;;;5011251;28;20034;-87
2021/12/16 08:27:42;;;;;;;147.90;45.40;;;9.50;99.90;;;;;;5011303;28;20056;-86
2021/12/16 08:30:11;;;;;;;90.40;37.87;;;9.50;99.90;;;;;;5012401;28;20030;-87
2021/12/16 08:32:37;;;;;;;88.93;37.88;;;9.50;99.90;;;;;;5011024;28;20029;-87
2021/12/16 08:35:08;;;;;;;79.73;34.63;;;9.40;99.90;;;;;;5011448;28;20072;-86
2021/12/16 08:37:35;;;;;;;79.37;34.33;;;9.40;99.90;;;;;;5010761;28;20034;-87
2021/12/16 08:40:09;;;;;;;80.27;34.67;;;9.40;99.90;;;;;;5011087;28;20389;-87
2021/12/16 08:42:34;;;;;;;87.70;40.27;;;9.40;99.90;;;;;;5011165;28;20395;-86
2021/12/16 08:45:00;;;;;;;78.80;38.00;;;9.30;99.90;;;;;;5011002;28;20121;-87
2021/12/16 08:47:26;;;;;;;82.23;36.47;;;9.30;99.90;;;;;;5010877;28;20139;-88
2021/12/16 08:49:52;;;;;;;71.27;32.67;;;9.30;99.90;;;;;;5010912;28;20025;-86
2021/12/16 08:52:21;;;;;;;67.03;31.67;;;9.30;99.90;;;;;;5010861;28;20100;-86
2021/12/16 08:54:48;;;;;;;;;;;9.30;99.90;;;;;;5011403;28;20395;-87
2021/12/16 08:57:15;;;;;;;67.43;31.57;;;9.30;99.90;;;;;;5010931;28;19913;-87
2021/12/16 08:59:43;;;;;;;64.97;32.00;;;9.30;99.90;;;;;;5010896;28;20451;-86
2021/12/16 09:02:09;;;;;;;72.40;30.50;;;9.30;99.90;;;;;;5010941;28;20026;-87
2021/12/16 09:04:37;;;;;;;70.30;31.57;;;9.30;99.90;;;;;;5010892;28;20038;-87
2021/12/16 09:07:05;;;;;;;66.20;30.43;;;9.30;99.90;;;;;;5010769;28;20069;-86
2021/12/16 09:09:34;;;;;;;60.57;29.97;;;9.30;99.90;;;;;;5010737;28;20030;-87
2021/12/16 09:12:12;;;;;;;59.78;28.90;;;9.30;99.90;;;;;;5010665;28;20476;-87
2021/12/16 09:14:39;;;;;;;60.23;29.43;;;9.30;99.90;;;;;;5010890;28;20036;-87
2021/12/16 09:17:10;;;;;;;67.10;30.33;;;9.30;99.90;;;;;;5010616;28;20037;-86
2021/12/16 09:19:43;;;;;;;54.93;27.47;;;9.30;99.90;;;;;;5010610;28;20049;-87
2021/12/16 09:22:10;;;;;;;58.53;28.33;;;9.30;99.90;;;;;;5010694;28;20512;-87
2021/12/16 09:24:36;;;;;;;56.70;28.17;;;9.30;99.90;;;;;;5011345;28;20056;-87
2021/12/16 09:27:03;;;;;;;60.27;28.83;;;9.40;99.90;;;;;;5014232;28;20033;-86
2021/12/16 09:29:29;;;;;;;57.67;28.23;;;9.40;99.90;;;;;;5014177;28;20038;-87
2021/12/16 09:31:55;;;;;;;71.77;31.13;;;9.40;99.90;;;;;;5014114;28;20026;-87
2021/12/16 09:34:21;;;;;;;83.07;35.37;;;9.50;99.90;;;;;;5014226;28;20036;-87
2021/12/16 09:36:46;;;;;;;88.13;35.43;;;9.50;99.90;;;;;;5015171;28;20038;-87
2021/12/16 09:39:17;;;;;;;86.97;34.73;;;9.50;99.90;;;;;;5014251;28;20022;-86
2021/12/16 09:41:47;;;;;;;82.33;34.57;;;9.50;99.90;;;;;;5014125;28;20113;-86
2021/12/16 09:44:15;;;;;;;75.50;33.93;;;9.40;99.90;;;;;;5014029;28;20040;-87
2021/12/16 09:46:44;;;;;;;74.57;32.97;;;9.40;99.90;;;;;;5014012;28;20369;-86
2021/12/16 09:49:11;;;;;;;78.60;32.60;;;9.40;99.90;;;;;;5013820;28;20061;-87
2021/12/16 09:51:41;;;;;;;89.13;35.13;;;9.50;99.90;;;;;;5013611;28;20080;-87
2021/12/16 09:54:15;;;;;;;89.80;37.07;;;9.40;99.90;;;;;;5013963;28;20032;-86
2021/12/16 09:56:42;;;;;;;97.40;38.17;;;9.50;99.90;;;;;;5013639;28;20030;-86
2021/12/16 09:59:12;;;;;;;100.57;37.57;;;9.50;99.90;;;;;;5013673;28;20030;-87
2021/12/16 10:01:38;;;;;;;111.23;39.33;;;9.50;99.90;;;;;;5013549;28;20457;-87
2021/12/16 10:04:09;;;;;;;83.73;34.53;;;9.50;99.90;;;;;;5013670;28;20025;-87
2021/12/16 10:06:38;;;;;;;86.50;32.73;;;9.50;99.90;;;;;;5013571;28;20408;-86
2021/12/16 10:09:07;;;;;;;107.23;36.60;;;9.40;99.90;;;;;;5013339;28;20038;-86
2021/12/16 10:11:35;;;;;;;104.53;36.97;;;9.50;99.90;;;;;;5013388;28;20030;-87
2021/12/16 10:19:16;;;;;;;73.27;31.93;;;9.50;99.90;;;;;;5013395;28;20033;-87
2021/12/16 10:21:43;;;;;;;63.30;30.33;;;9.50;99.90;;;;;;5013588;28;20447;-87
2021/12/16 10:24:29;;;;;;;70.17;31.83;;;9.50;99.90;;;;;;5013426;28;20037;-87
2021/12/16 10:27:06;;;;;;;86.20;32.43;;;9.50;99.90;;;;;;5013374;28;20034;-87
2021/12/16 10:29:42;;;;;;;97.07;34.50;;;9.60;99.90;;;;;;5013653;28;20073;-87
2021/12/16 10:32:45;;;;;;;65.83;31.17;;;9.60;99.90;;;;;;5016939;28;20058;-87
2021/12/16 10:35:28;;;;;;;107.57;35.00;;;9.60;99.90;;;;;;5001187;28;20056;-87
2021/12/16 10:37:58;;;;;;;79.83;35.10;;;9.60;99.90;;;;;;5017954;28;20041;-87
2021/12/16 10:40:26;;;;;;;73.83;33.97;;;9.60;99.90;;;;;;5001581;28;20481;-86
2021/12/16 10:42:53;;;;;;;74.67;31.47;;;9.70;99.90;;;;;;5014729;28;20030;-86
2021/12/16 10:45:50;;;;;;;65.30;31.93;;;9.70;99.90;;;;;;5012874;28;20128;-86
2021/12/16 10:48:32;;;;;;;68.87;30.67;;;9.70;99.90;;;;;;5001414;28;20045;-86
2021/12/16 10:51:05;;;;;;;63.63;28.97;;;9.70;99.90;;;;;;5013368;28;20051;-86
2021/12/16 10:53:51;;;;;;;68.60;30.40;;;9.70;99.90;;;;;;5013762;28;20029;-87
2021/12/16 10:56:22;;;;;;;62.40;29.53;;;9.70;99.90;;;;;;5012487;28;20480;-86
2021/12/16 10:59:12;;;;;;;59.80;29.30;;;9.80;99.90;;;;;;5012677;28;20041;-86
2021/12/16 11:01:50;;;;;;;65.33;29.70;;;9.80;99.90;;;;;;5012589;28;20069;-87
2021/12/16 11:04:21;;;;;;;63.03;29.77;;;9.80;99.90;;;;;;5012437;28;20052;-86
2021/12/16 11:07:00;;;;;;;64.97;30.33;;;9.80;99.90;;;;;;5012380;28;20116;-87
2021/12/16 11:09:25;;;;;;;57.78;28.35;;;9.80;99.90;;;;;;5012388;28;20034;-87
2021/12/16 11:12:21;;;;;;;61.57;28.47;;;9.80;99.90;;;;;;5012282;28;20037;-87
2021/12/16 11:14:53;;;;;;;56.33;27.07;;;9.80;99.90;;;;;;5012281;28;20139;-87
2021/12/16 11:17:21;;;;;;;56.40;28.30;;;9.90;99.90;;;;;;5012179;28;20030;-86
2021/12/16 11:19:55;;;;;;;55.87;27.87;;;9.90;99.90;;;;;;5013399;28;20051;-87
2021/12/16 11:22:29;;;;;;;56.77;27.87;;;9.90;99.90;;;;;;5012517;28;20030;-87
2021/12/16 11:24:55;;;;;;;55.03;27.97;;;9.90;99.90;;;;;;5011907;28;20038;-87
2021/12/16 11:27:23;;;;;;;53.03;27.73;;;9.90;99.90;;;;;;5012027;28;20476;-87
2021/12/16 11:29:49;;;;;;;51.90;26.50;;;9.90;99.90;;;;;;5012064;28;20042;-87
2021/12/16 11:32:42;;;;;;;52.47;27.80;;;9.90;99.90;;;;;;5011886;28;20100;-86
2021/12/16 11:35:31;;;;;;;50.43;26.87;;;9.90;99.90;;;;;;5012013;28;20109;-87
2021/12/16 11:38:01;;;;;;;53.67;28.17;;;9.80;99.90;;;;;;5011946;28;20030;-86
2021/12/16 11:40:27;;;;;;;52.30;26.93;;;9.90;99.90;;;;;;5011963;28;20038;-86
2021/12/16 11:43:05;;;;;;;49.57;25.97;;;9.90;99.90;;;;;;5011854;28;20064;-86
2021/12/16 11:45:39;;;;;;;45.50;24.53;;;9.90;99.90;;;;;;5011960;28;20100;-86
2021/12/16 11:48:06;;;;;;;49.80;25.63;;;10.00;99.90;;;;;;5011246;28;20115;-86
2021/12/16 11:50:37;;;;;;;50.87;26.43;;;10.00;99.90;;;;;;5012068;28;20022;-86
2021/12/16 11:53:07;;;;;;;53.87;26.87;;;10.00;99.90;;;;;;5018454;28;20429;-86
2021/12/16 11:55:38;;;;;;;50.53;26.17;;;10.00;99.90;;;;;;5017067;28;20040;-86
2021/12/16 11:58:07;;;;;;;51.80;26.57;;;10.10;99.90;;;;;;5013733;28;20026;-86
2021/12/16 12:00:36;;;;;;;;;;;10.10;99.90;;;;;;5011799;28;20022;-86
2021/12/16 12:03:13;;;;;;;52.88;28.30;;;10.10;99.90;;;;;;5011315;28;19910;-86
2021/12/16 12:05:48;;;;;;;52.27;27.43;;;10.10;99.90;;;;;;5011474;28;20065;-87
2021/12/16 12:08:23;;;;;;;51.30;26.73;;;10.10;99.90;;;;;;5010943;28;20465;-86
2021/12/16 12:11:02;;;;;;;50.77;26.07;;;10.20;99.90;;;;;;5011143;28;20491;-86
2021/12/16 12:13:40;;;;;;;47.97;26.27;;;10.10;99.90;;;;;;5011144;28;20044;-86
2021/12/16 12:16:16;;;;;;;52.43;27.00;;;10.10;99.90;;;;;;5011327;28;20698;-86
2021/12/16 12:18:42;;;;;;;44.27;24.70;;;10.10;99.90;;;;;;5011055;28;20049;-86
2021/12/16 12:21:19;;;;;;;47.20;26.00;;;10.10;99.90;;;;;;5010940;28;20045;-86
2021/12/16 12:23:46;;;;;;;63.17;29.30;;;10.10;99.90;;;;;;5010959;28;20480;-86
2021/12/16 12:26:16;;;;;;;60.87;29.43;;;10.10;99.90;;;;;;5011315;28;20034;-86
2021/12/16 12:28:48;;;;;;;54.47;28.60;;;10.10;99.90;;;;;;5010573;28;20034;-86
2021/12/16 12:31:15;;;;;;;50.97;27.30;;;10.10;99.90;;;;;;5011067;28;20025;-86
2021/12/16 12:33:41;;;;;;;51.13;27.10;;;10.10;99.90;;;;;;4994514;28;20485;-86
2021/12/16 12:36:08;;;;;;;53.73;28.60;;;10.10;99.90;;;;;;5010721;28;20036;-86
2021/12/16 12:38:36;;;;;;;56.83;27.10;;;10.10;99.90;;;;;;5010331;28;20473;-86
2021/12/16 12:41:04;;;;;;;46.43;25.97;;;10.10;99.90;;;;;;5010709;28;20034;-86
2021/12/16 12:43:33;;;;;;;48.23;26.67;;;10.20;99.90;;;;;;5011977;28;20128;-86
2021/12/16 12:46:00;;;;;;;56.08;27.33;;;10.10;99.90;;;;;;5010807;28;20034;-86
2021/12/16 12:48:26;;;;;;;52.20;27.07;;;10.10;99.90;;;;;;5010419;28;20172;-86
2021/12/16 12:50:58;;;;;;;55.10;27.23;;;10.10;99.90;;;;;;5010972;28;20048;-86
2021/12/16 12:53:38;;;;;;;55.83;27.67;;;10.10;99.90;;;;;;5010840;28;20129;-86
2021/12/16 12:56:18;;;;;;;59.37;27.90;;;10.10;99.90;;;;;;5010961;28;20041;-87
2021/12/16 12:59:12;;;;;;;59.63;29.13;;;10.10;99.90;;;;;;5011905;28;20029;-87
2021/12/16 13:01:47;;;;;;;60.40;28.63;;;10.10;99.90;;;;;;4992451;28;20129;-87
2021/12/16 13:04:22;;;;;;;89.23;35.67;;;10.10;99.90;;;;;;5014799;28;20049;-86
2021/12/16 13:06:59;;;;;;;78.20;34.67;;;10.10;99.90;;;;;;5014529;28;20034;-87
2021/12/16 13:09:39;;;;;;;63.13;29.00;;;10.00;99.90;;;;;;5014754;28;20282;-86
2021/12/16 13:12:43;;;;;;;59.27;30.90;;;10.00;99.90;;;;;;5014500;28;20504;-86
2021/12/16 13:15:32;;;;;;;64.83;29.10;;;10.00;99.90;;;;;;5014299;28;20555;-86
2021/12/16 13:24:17;;;;;;;65.83;31.83;;;10.00;99.90;;;;;;5014358;28;20030;-87
2021/12/16 13:32:13;;;;;;;64.37;31.13;;;10.10;99.90;;;;;;5014122;28;20030;-87
2021/12/16 13:34:51;;;;;;;60.75;29.33;;;10.10;99.90;;;;;;5014468;28;20033;-87
2021/12/16 13:37:30;;;;;;;59.93;30.00;;;10.10;99.90;;;;;;5013876;28;20044;-87
2021/12/16 13:40:22;;;;;;;67.23;31.37;;;10.10;99.90;;;;;;5014076;28;20473;-87
2021/12/16 13:42:55;;;;;;;64.60;30.73;;;10.10;99.90;;;;;;4992955;28;20042;-87
2021/12/16 13:45:32;;;;;;;63.87;31.37;;;10.10;99.90;;;;;;5014182;28;20555;-87
2021/12/16 14:02:11;;;;;;;;;;;10.20;99.90;;;;;;5014951;28;20033;-86
2021/12/16 14:10:13;;;;;;;67.15;31.67;;;10.20;99.90;;;;;;5013630;28;20404;-87
2021/12/16 14:14:05;;;;;;;66.13;30.33;;;10.20;99.90;;;;;;5014745;28;20512;-86
2021/12/16 14:38:24;;;;;;;65.03;30.37;;;10.20;99.90;;;;;;5013264;28;20044;-86
2021/12/16 14:41:06;;;;;;;64.27;29.57;;;10.20;99.90;;;;;;5013304;28;20408;-88
2021/12/16 14:46:29;;;;;;;75.63;32.20;;;10.20;99.90;;;;;;5001391;28;20052;-87
2021/12/16 14:48:55;;;;;;;79.87;34.07;;;10.20;99.90;;;;;;5012927;28;20040;-87
2021/12/16 14:51:22;;;;;;;83.37;35.23;;;10.10;99.90;;;;;;5014337;28;20550;-87
2021/12/16 14:53:51;;;;;;;77.53;32.37;;;10.20;99.90;;;;;;5013706;28;20084;-87
2021/12/16 14:56:25;;;;;;;;;;;10.10;99.90;;;;;;5013368;28;20037;-87
2021/12/16 14:58:56;;;;;;;87.47;35.63;;;10.20;99.90;;;;;;5012953;28;19916;-87
2021/12/16 15:01:36;;;;;;;80.77;33.73;;;10.10;99.90;;;;;;5013209;28;20107;-87
2021/12/16 15:04:04;;;;;;;80.00;34.30;;;10.10;99.90;;;;;;5013038;28;20061;-86
2021/12/16 15:06:47;;;;;;;78.33;33.97;;;10.10;99.90;;;;;;5020498;28;20034;-86
2021/12/16 15:09:21;;;;;;;88.90;36.03;;;10.10;99.90;;;;;;5018681;28;20352;-86
2021/12/16 15:15:20;;;;;;;85.07;35.53;;;10.10;99.90;;;;;;5018403;28;20117;-87
2021/12/16 15:32:29;;;;;;;92.93;37.67;;;10.00;99.90;;;;;;5008855;28;20056;-86
2021/12/16 15:40:37;;;;;;;88.13;35.67;;;10.00;99.90;;;;;;5020032;28;20038;-87
2021/12/16 15:43:08;;;;;;;92.27;37.27;;;10.00;99.90;;;;;;5020856;28;20040;-88
2021/12/16 15:45:34;;;;;;;90.07;36.57;;;9.90;99.90;;;;;;5021420;28;20041;-87
2021/12/16 15:48:10;;;;;;;96.03;38.77;;;10.00;99.90;;;;;;5020062;28;20097;-87
2021/12/16 15:50:45;;;;;;;95.27;38.50;;;10.00;99.90;;;;;;5021129;28;20507;-87
2021/12/16 15:53:19;;;;;;;92.87;36.90;;;10.00;99.90;;;;;;5021628;28;20109;-88
2021/12/16 15:55:56;;;;;;;94.40;38.07;;;10.00;99.90;;;;;;5021573;28;20045;-88
2021/12/16 15:58:49;;;;;;;92.70;37.50;;;10.00;99.90;;;;;;5004353;28;20488;-88
2021/12/16 16:01:24;;;;;;;97.97;38.10;;;10.00;99.90;;;;;;5012138;28;20026;-88
2021/12/16 16:03:50;;;;;;;96.87;38.77;;;9.90;99.90;;;;;;5012281;28;20056;-88
2021/12/16 16:06:17;;;;;;;100.33;39.90;;;10.00;99.90;;;;;;5011660;28;20036;-88
2021/12/16 16:08:49;;;;;;;96.80;37.97;;;9.90;99.90;;;;;;5011332;28;20030;-87
2021/12/16 16:11:20;;;;;;;104.23;39.07;;;9.90;99.90;;;;;;5013227;28;20030;-88
2021/12/16 16:13:53;;;;;;;95.63;37.40;;;10.00;99.90;;;;;;5012370;28;20038;-87
2021/12/16 16:16:22;;;;;;;97.63;38.30;;;9.90;99.90;;;;;;5012101;28;20481;-87
2021/12/16 16:18:55;;;;;;;96.45;37.05;;;10.00;99.90;;;;;;5012901;28;20116;-87
2021/12/16 16:21:33;;;;;;;99.30;38.50;;;10.00;99.90;;;;;;5012561;28;20030;-87
2021/12/16 16:24:20;;;;;;;96.77;38.57;;;10.00;99.90;;;;;;5012969;28;20512;-86
2021/12/16 16:26:49;;;;;;;99.53;40.07;;;10.00;99.90;;;;;;5012025;28;20033;-87
2021/12/16 16:29:18;;;;;;;97.70;39.00;;;10.00;99.90;;;;;;5013691;28;20033;-87
2021/12/16 16:31:46;;;;;;;94.83;38.30;;;9.90;99.90;;;;;;5011389;28;20062;-87
2021/12/16 16:34:16;;;;;;;96.00;37.10;;;10.00;99.90;;;;;;5012011;28;20028;-87
2021/12/16 16:36:46;;;;;;;102.30;39.00;;;9.90;99.90;;;;;;4994901;28;20489;-87
2021/12/16 16:39:16;;;;;;;88.23;36.40;;;9.90;99.90;;;;;;5010632;28;20034;-87
2021/12/16 16:41:46;;;;;;;94.37;38.17;;;9.90;99.90;;;;;;5011797;28;20105;-87
2021/12/16 16:44:15;;;;;;;98.60;39.13;;;9.90;99.90;;;;;;5022913;28;20061;-86
2021/12/16 16:47:14;;;;;;;90.80;36.35;;;9.90;99.90;;;;;;5007016;28;20054;-86